Aérodrome :
LOGIN :

S'inscrire | Disclaimer

   EN    FR    IT 

 










Légende :    VFR   VFR Marginal   IFR   IFR Intensif   IFR Très Intensif
Visi : 
Plafond : 
>= 8 km
>= 3000ft
5 à 8 km
1000 à 3000 ft
1500m à 5 km
500 à 1000 ft
800 à 1500m
200 à 500 ft
< 800m
< 200 ft
Symboles :   Orages  Brouillard  Fortes neiges  Fortes précipitations  Vent > 20 kt
SIGMETs :   Divers  Orages  Givrage  Turbulence  Onde Orograph.  Cendres Volcan.






- Altitude de l'aérodrome : 18 ft
- Code IATA : AJA


LFKJ - Ajaccio

DERNIER METAR :
  • 090800Z AUTO 24005KT 210V270 CAVOK 29/20 Q1016 NOSIG

METARs EXPIRÉS :
  • 090730Z AUTO 23005KT CAVOK 28/20 Q1016 NOSIG
  • 090700Z AUTO 19004KT 140V230 CAVOK 28/17 Q1016 NOSIG
  • 090630Z AUTO VRB01KT CAVOK 27/16 Q1016 BECMG 23012KT
  • 090600Z AUTO 04003KT CAVOK 25/16 Q1016 NOSIG
  • 090530Z AUTO 03006KT CAVOK 23/16 Q1015 NOSIG

TAF TAF LFKJ
Valide du 09 à 03h jusqu'au 10 à 03h UTC


090200Z 0903/1003 05005KT CAVOK
BECMG 0908/0910 23012KT
BECMG 0919/0921 VRB04KT
ATIS : +33 4 95 23 59 85



MET'MAP, la Météo Aéronautique d'un coup d'oeil ! - Copyright ORBIFLY Décembre 2007 - Disclaimer

ORBIFLY MET'MAP TEAM :

Programmation & Développement : Alexandra Zaïnal
Sur une idée originale de : Baudouin d'Aumeries
Soutien technique & logistique : Manuel Goepfert
Assistance : Marc-Olivier Méhu




SOURCES & CREDITS :

   NOAA